CheckWX is a tool to help pilots better visualize weather data.  It is not intended as a substitute for an official pre-flight weather briefing.

09:56:33 UTC

KMML METAR
Southwest Minnesota Regional Marshall / Ryan Field Airport
Marshall, Minnesota, USA
Current

1 hour ago

KMML 210856Z AUTO 20017KT 10SM CLR M17/M19 A3038 RMK AO2 SLP320 T11671194 56032 FZRANO
Observed
Jan-21 @ 08:56 UTC
Wind
  • 200° at 17 KTS
Visibility
10 SM
Flight Rules
VFR
Cloud Levels
  • Clear skies
Temperature
-17°C / 1°F
Dewpoint
-19°C / -2°F
Humidity
85%
Altimeter
30.38" Hg
Pressure
1028.82 hPa
Previous

2 hours ago

KMML 210756Z AUTO 21017KT 10SM CLR M17/M19 A3041 RMK AO2 SLP332 T11721194 FZRANO
Observed
Jan-21 @ 07:56 UTC
Wind
  • 210° at 17 KTS
Visibility
10 SM
Flight Rules
VFR
Cloud Levels
  • Clear skies
Temperature
-17°C / 1°F
Dewpoint
-19°C / -2°F
Humidity
85%
Altimeter
30.41" Hg
Pressure
1029.82 hPa
Previous

3 hours ago

KMML 210656Z AUTO 21014KT 10SM CLR M17/M19 A3045 RMK AO2 SLP345 T11721194 FZRANO
Observed
Jan-21 @ 06:56 UTC
Wind
  • 210° at 14 KTS
Visibility
10 SM
Flight Rules
VFR
Cloud Levels
  • Clear skies
Temperature
-17°C / 1°F
Dewpoint
-19°C / -2°F
Humidity
85%
Altimeter
30.45" Hg
Pressure
1031.12 hPa